Time;durP1;ratioP1;P1;durP2;ratioP2;P2;SDS_P1;SDS_P2;PMS_P1;PMS_P2;Temp;Humidity;BMP_temperature;BMP_pressure;BME280_temperature;BME280_humidity;BME280_pressure;Samples;Min_cycle;Max_cycle;Signal;HPM_P1;HPM_P2
2024/01/22 00:02:15;;;;;;;2.67;1.55;;;;;;;;;;4992450;28;57974;-69
2024/01/22 00:04:40;;;;;;;1.67;1.33;;;;;;;;;;4988964;28;58714;-70
2024/01/22 00:07:05;;;;;;;2.50;1.70;;;;;;;;;;4987721;28;58044;-69
2024/01/22 00:09:30;;;;;;;3.33;1.67;;;;;;;;;;4985800;28;57483;-69
2024/01/22 00:11:56;;;;;;;1.77;1.47;;;;;;;;;;4985745;28;58021;-69
2024/01/22 00:14:21;;;;;;;5.30;1.70;;;;;;;;;;4985562;28;58252;-69
2024/01/22 00:16:46;;;;;;;3.80;2.10;;;;;;;;;;4985195;28;58723;-69
2024/01/22 00:19:11;;;;;;;5.33;2.10;;;;;;;;;;4990599;28;57948;-69
2024/01/22 00:21:40;;;;;;;5.43;2.30;;;;;;;;;;4987289;28;58036;-70
2024/01/22 00:24:05;;;;;;;4.47;1.92;;;;;;;;;;4986305;28;58475;-69
2024/01/22 00:26:31;;;;;;;4.83;1.80;;;;;;;;;;4986647;28;57860;-69
2024/01/22 00:28:56;;;;;;;2.15;1.58;;;;;;;;;;4987106;28;57957;-69
2024/01/22 00:31:21;;;;;;;1.50;1.30;;;;;;;;;;4985884;28;60119;-69
2024/01/22 00:33:46;;;;;;;3.07;1.67;;;;;;;;;;4990502;28;58029;-69
2024/01/22 00:36:14;;;;;;;3.28;1.30;;;;;;;;;;4987271;28;58848;-69
2024/01/22 00:38:40;;;;;;;2.08;1.52;;;;;;;;;;4986002;28;58559;-69
2024/01/22 00:41:05;;;;;;;2.00;1.50;;;;;;;;;;4986894;28;58053;-69
2024/01/22 00:43:31;;;;;;;7.20;2.23;;;;;;;;;;4989516;28;59206;-69
2024/01/22 00:45:57;;;;;;;2.77;1.70;;;;;;;;;;4984490;28;57685;-70
2024/01/22 00:48:22;;;;;;;2.15;1.42;;;;;;;;;;4982475;28;59135;-69
2024/01/22 00:50:47;;;;;;;4.00;1.60;;;;;;;;;;4982235;28;59105;-69
2024/01/22 00:53:12;;;;;;;2.03;1.52;;;;;;;;;;4980535;28;58353;-69
2024/01/22 00:55:37;;;;;;;2.30;1.70;;;;;;;;;;4988377;28;59484;-69
2024/01/22 00:58:03;;;;;;;1.77;1.27;;;;;;;;;;4988805;28;58913;-70
2024/01/22 01:00:28;;;;;;;2.67;1.57;;;;;;;;;;4985119;28;58429;-69
2024/01/22 01:02:54;;;;;;;3.00;1.30;;;;;;;;;;4985838;28;59375;-65
2024/01/22 01:05:19;;;;;;;2.55;1.50;;;;;;;;;;4983076;28;58209;-65
2024/01/22 01:07:44;;;;;;;3.25;1.85;;;;;;;;;;4986229;28;58078;-67
2024/01/22 01:10:09;;;;;;;2.25;1.42;;;;;;;;;;4985653;28;59011;-65
2024/01/22 01:12:34;;;;;;;3.20;1.37;;;;;;;;;;4986864;28;58533;-65
2024/01/22 01:15:00;;;;;;;3.22;1.25;;;;;;;;;;4983981;28;58588;-66
2024/01/22 01:17:25;;;;;;;4.20;1.40;;;;;;;;;;4985324;28;58340;-65
2024/01/22 01:19:50;;;;;;;3.00;1.50;;;;;;;;;;4988083;28;58136;-66
2024/01/22 01:22:15;;;;;;;3.27;1.30;;;;;;;;;;4985929;28;58141;-65
2024/01/22 01:24:40;;;;;;;2.13;1.47;;;;;;;;;;4985209;28;59795;-67
2024/01/22 01:27:06;;;;;;;2.40;2.10;;;;;;;;;;4986306;28;58335;-65
2024/01/22 01:29:31;;;;;;;4.03;2.00;;;;;;;;;;4986193;28;58514;-65
2024/01/22 01:31:56;;;;;;;1.87;1.63;;;;;;;;;;4984444;28;58094;-65
2024/01/22 01:34:21;;;;;;;1.97;1.43;;;;;;;;;;4987095;28;59148;-65
2024/01/22 01:36:46;;;;;;;2.07;1.67;;;;;;;;;;4981652;28;58155;-65
2024/01/22 01:39:12;;;;;;;3.10;1.50;;;;;;;;;;4985848;28;58470;-64
2024/01/22 01:41:37;;;;;;;1.40;1.23;;;;;;;;;;4986338;28;59007;-64
2024/01/22 01:44:03;;;;;;;3.97;1.83;;;;;;;;;;4985428;28;60055;-64
2024/01/22 01:46:28;;;;;;;1.63;1.30;;;;;;;;;;4986071;28;58087;-64
2024/01/22 01:48:54;;;;;;;2.40;1.00;;;;;;;;;;4984741;28;59048;-65
2024/01/22 01:51:20;;;;;;;2.50;1.05;;;;;;;;;;4989455;28;58443;-65
2024/01/22 01:53:45;;;;;;;2.97;1.83;;;;;;;;;;4985794;28;59645;-64
2024/01/22 01:56:11;;;;;;;4.05;1.80;;;;;;;;;;4984038;28;58856;-66
2024/01/22 01:58:36;;;;;;;1.05;0.93;;;;;;;;;;4991649;28;57903;-64
2024/01/22 02:01:02;;;;;;;1.50;1.13;;;;;;;;;;4988116;28;58911;-64
2024/01/22 02:03:27;;;;;;;2.13;1.35;;;;;;;;;;4987450;28;57906;-65
2024/01/22 02:05:53;;;;;;;2.67;1.43;;;;;;;;;;4986099;28;58357;-66
2024/01/22 02:08:18;;;;;;;3.22;1.98;;;;;;;;;;4984918;28;58850;-65
2024/01/22 02:10:47;;;;;;;1.67;1.50;;;;;;;;;;4984969;28;58759;-64
2024/01/22 02:13:14;;;;;;;1.77;1.58;;;;;;;;;;4986960;28;58406;-68
2024/01/22 02:15:39;;;;;;;2.40;1.10;;;;;;;;;;4982593;28;59361;-68
2024/01/22 02:18:05;;;;;;;1.30;1.20;;;;;;;;;;4982742;28;58512;-69
2024/01/22 02:20:30;;;;;;;1.83;1.00;;;;;;;;;;4984034;28;58294;-69
2024/01/22 02:23:00;;;;;;;0.90;0.83;;;;;;;;;;4985163;28;58970;-68
2024/01/22 02:25:25;;;;;;;3.55;1.42;;;;;;;;;;4983997;28;57941;-68
2024/01/22 02:27:50;;;;;;;2.42;1.95;;;;;;;;;;4985738;28;59398;-68
2024/01/22 02:30:15;;;;;;;3.23;1.93;;;;;;;;;;4986660;28;59170;-68
2024/01/22 02:32:40;;;;;;;1.70;1.03;;;;;;;;;;4984800;28;58666;-68
2024/01/22 02:35:06;;;;;;;2.20;1.20;;;;;;;;;;4983471;28;60242;-68
2024/01/22 02:37:31;;;;;;;1.90;1.48;;;;;;;;;;4984093;28;58035;-68
2024/01/22 02:39:56;;;;;;;4.43;1.10;;;;;;;;;;4985714;28;59058;-68
2024/01/22 02:42:21;;;;;;;1.25;1.15;;;;;;;;;;4983753;28;59174;-68
2024/01/22 02:44:46;;;;;;;2.27;1.77;;;;;;;;;;4987293;28;58557;-68
2024/01/22 02:47:12;;;;;;;5.70;1.73;;;;;;;;;;4989727;28;58041;-68
2024/01/22 02:49:37;;;;;;;1.57;1.40;;;;;;;;;;4990968;28;59040;-68
2024/01/22 02:52:02;;;;;;;2.37;1.17;;;;;;;;;;4988205;28;58414;-68
2024/01/22 02:54:27;;;;;;;1.13;0.98;;;;;;;;;;4986669;28;60304;-68
2024/01/22 02:56:53;;;;;;;2.73;1.57;;;;;;;;;;4991496;28;58391;-68
2024/01/22 02:59:19;;;;;;;1.73;0.90;;;;;;;;;;4987777;28;58946;-68
2024/01/22 03:01:44;;;;;;;1.30;1.20;;;;;;;;;;4988020;28;59980;-68
2024/01/22 03:04:09;;;;;;;2.93;1.27;;;;;;;;;;4988845;28;58161;-68
2024/01/22 03:06:34;;;;;;;2.63;0.90;;;;;;;;;;4987623;28;57841;-68
2024/01/22 03:08:59;;;;;;;1.77;1.15;;;;;;;;;;4981687;28;60770;-69
2024/01/22 03:11:24;;;;;;;1.43;1.10;;;;;;;;;;4992572;28;58180;-68
2024/01/22 03:13:50;;;;;;;1.60;1.07;;;;;;;;;;4987687;28;58625;-69
2024/01/22 03:16:15;;;;;;;1.73;1.30;;;;;;;;;;4986878;28;57749;-67
2024/01/22 03:18:40;;;;;;;2.25;1.20;;;;;;;;;;4989065;28;59203;-68
2024/01/22 03:21:05;;;;;;;3.50;1.10;;;;;;;;;;4985634;28;58072;-68
2024/01/22 03:23:30;;;;;;;1.97;0.90;;;;;;;;;;4990337;28;58020;-68
2024/01/22 03:25:56;;;;;;;1.63;1.20;;;;;;;;;;4988041;28;58321;-69
2024/01/22 03:28:21;;;;;;;1.63;1.50;;;;;;;;;;4989019;28;59599;-68
2024/01/22 03:30:46;;;;;;;1.55;1.45;;;;;;;;;;4988106;28;58173;-68
2024/01/22 03:33:12;;;;;;;5.60;2.13;;;;;;;;;;4985676;28;58609;-68
2024/01/22 03:35:37;;;;;;;0.97;0.97;;;;;;;;;;4985947;28;58206;-68
2024/01/22 03:38:02;;;;;;;2.70;1.88;;;;;;;;;;4988626;28;58404;-68
2024/01/22 03:40:27;;;;;;;3.47;1.00;;;;;;;;;;4986775;28;58043;-68
2024/01/22 03:42:52;;;;;;;1.10;1.00;;;;;;;;;;4986956;28;57945;-69
2024/01/22 03:45:17;;;;;;;2.13;1.40;;;;;;;;;;4988206;28;58710;-67
2024/01/22 03:47:42;;;;;;;2.03;1.67;;;;;;;;;;4984290;28;58220;-68
2024/01/22 03:50:08;;;;;;;2.20;1.35;;;;;;;;;;4983566;28;57916;-68
2024/01/22 03:52:33;;;;;;;2.95;2.38;;;;;;;;;;4989560;28;57995;-68
2024/01/22 03:54:58;;;;;;;3.83;1.60;;;;;;;;;;4987757;28;58984;-68
2024/01/22 03:57:23;;;;;;;2.30;1.27;;;;;;;;;;4988661;28;58149;-68
2024/01/22 03:59:49;;;;;;;1.23;1.13;;;;;;;;;;4987218;28;58043;-67
2024/01/22 04:02:14;;;;;;;1.02;0.93;;;;;;;;;;4992356;28;57848;-68
2024/01/22 04:04:39;;;;;;;1.47;1.20;;;;;;;;;;4988583;28;58367;-68
2024/01/22 04:07:04;;;;;;;4.20;1.23;;;;;;;;;;4989293;28;58579;-68
2024/01/22 04:09:29;;;;;;;1.48;1.02;;;;;;;;;;4985598;28;58446;-68
2024/01/22 04:11:54;;;;;;;0.90;0.73;;;;;;;;;;4988987;28;59142;-68
2024/01/22 04:14:20;;;;;;;1.52;1.27;;;;;;;;;;4986488;28;58251;-68
2024/01/22 04:16:45;;;;;;;1.42;0.93;;;;;;;;;;4987633;28;58534;-68
2024/01/22 04:19:10;;;;;;;2.63;1.38;;;;;;;;;;4988144;28;58196;-68
2024/01/22 04:21:43;;;;;;;2.17;0.90;;;;;;;;;;4983678;28;58169;-68
2024/01/22 04:24:08;;;;;;;1.33;0.93;;;;;;;;;;4988972;28;58374;-68
2024/01/22 04:26:33;;;;;;;1.10;1.00;;;;;;;;;;4988076;28;58942;-68
2024/01/22 04:28:58;;;;;;;1.02;1.02;;;;;;;;;;4987294;28;58275;-68
2024/01/22 04:31:23;;;;;;;1.47;1.37;;;;;;;;;;4989865;28;57918;-68
2024/01/22 04:33:49;;;;;;;2.63;1.67;;;;;;;;;;4983999;28;58976;-68
2024/01/22 04:36:14;;;;;;;1.30;1.20;;;;;;;;;;4986112;28;58019;-67
2024/01/22 04:38:39;;;;;;;5.50;0.77;;;;;;;;;;4987727;28;58014;-68
2024/01/22 04:41:04;;;;;;;2.20;1.20;;;;;;;;;;4981822;28;58074;-68
2024/01/22 04:43:29;;;;;;;2.57;0.90;;;;;;;;;;4986519;28;58051;-66
2024/01/22 04:45:54;;;;;;;1.93;0.93;;;;;;;;;;4989732;28;58815;-65
2024/01/22 04:48:20;;;;;;;2.22;1.17;;;;;;;;;;4981355;28;58000;-66
2024/01/22 04:50:45;;;;;;;1.27;1.17;;;;;;;;;;4986858;28;59792;-64
2024/01/22 04:53:10;;;;;;;2.88;1.10;;;;;;;;;;4988544;28;60434;-68
2024/01/22 04:55:35;;;;;;;2.80;1.23;;;;;;;;;;4982804;28;58402;-68
2024/01/22 04:58:00;;;;;;;1.20;1.10;;;;;;;;;;4970613;28;58135;-70
2024/01/22 05:00:25;;;;;;;1.65;1.40;;;;;;;;;;4985234;28;58145;-68
2024/01/22 05:02:50;;;;;;;1.07;0.93;;;;;;;;;;4984708;28;58808;-68
2024/01/22 05:05:16;;;;;;;1.63;1.43;;;;;;;;;;4981430;28;60554;-68
2024/01/22 05:07:41;;;;;;;1.73;1.00;;;;;;;;;;4983628;28;58054;-68
2024/01/22 05:10:09;;;;;;;1.15;1.05;;;;;;;;;;4986622;28;58741;-68
2024/01/22 05:12:34;;;;;;;4.03;1.40;;;;;;;;;;4983623;28;58040;-68
2024/01/22 05:14:59;;;;;;;1.42;0.85;;;;;;;;;;4983368;28;58053;-68
2024/01/22 05:17:26;;;;;;;1.50;1.30;;;;;;;;;;4985539;28;57953;-68
2024/01/22 05:19:53;;;;;;;0.77;0.70;;;;;;;;;;4986316;28;58400;-69
2024/01/22 05:22:18;;;;;;;0.85;0.82;;;;;;;;;;4985676;28;63183;-68
2024/01/22 05:24:43;;;;;;;1.20;1.08;;;;;;;;;;4982591;28;58813;-69
2024/01/22 05:27:09;;;;;;;1.08;0.82;;;;;;;;;;4985644;28;58168;-69
2024/01/22 05:29:34;;;;;;;0.70;0.70;;;;;;;;;;4978722;28;58599;-77
2024/01/22 05:32:02;;;;;;;1.10;0.70;;;;;;;;;;4981826;28;58048;-77
2024/01/22 05:34:27;;;;;;;0.87;0.87;;;;;;;;;;4982613;28;58413;-77
2024/01/22 05:36:52;;;;;;;2.33;1.50;;;;;;;;;;4981534;28;58847;-77
2024/01/22 05:39:18;;;;;;;2.90;1.27;;;;;;;;;;4983074;28;64076;-77
2024/01/22 05:41:43;;;;;;;2.47;0.80;;;;;;;;;;4983870;28;58744;-71
2024/01/22 05:44:08;;;;;;;4.07;1.20;;;;;;;;;;4985142;28;58871;-69
2024/01/22 05:46:33;;;;;;;3.77;1.10;;;;;;;;;;4982438;28;58280;-69
2024/01/22 05:48:59;;;;;;;1.77;0.90;;;;;;;;;;4984753;28;57812;-69
2024/01/22 05:51:24;;;;;;;3.20;1.30;;;;;;;;;;4981262;28;60371;-69
2024/01/22 05:53:49;;;;;;;4.43;1.10;;;;;;;;;;4986533;28;58158;-64
2024/01/22 05:56:21;;;;;;;1.10;1.00;;;;;;;;;;4984074;28;58141;-67
2024/01/22 05:58:46;;;;;;;2.38;1.00;;;;;;;;;;4989372;28;58666;-65
2024/01/22 06:01:17;;;;;;;1.52;1.08;;;;;;;;;;4981907;28;59011;-67
2024/01/22 06:03:43;;;;;;;2.42;1.20;;;;;;;;;;4981689;28;58416;-66
2024/01/22 06:06:08;;;;;;;2.83;1.17;;;;;;;;;;4983059;28;58070;-64
2024/01/22 06:08:33;;;;;;;2.60;1.25;;;;;;;;;;4985494;28;57788;-66
2024/01/22 06:10:59;;;;;;;2.38;1.05;;;;;;;;;;4985308;28;58996;-64
2024/01/22 06:13:24;;;;;;;2.22;0.75;;;;;;;;;;4987180;28;58531;-64
2024/01/22 06:15:49;;;;;;;0.95;0.63;;;;;;;;;;4983926;28;58831;-65
2024/01/22 06:18:14;;;;;;;2.70;1.55;;;;;;;;;;4989525;28;58246;-64
2024/01/22 06:20:39;;;;;;;1.70;1.10;;;;;;;;;;4991124;28;58308;-65
2024/01/22 06:23:04;;;;;;;3.03;1.30;;;;;;;;;;4994657;28;58287;-66
2024/01/22 06:25:29;;;;;;;4.80;1.00;;;;;;;;;;4991948;28;58044;-67
2024/01/22 06:27:55;;;;;;;1.00;0.90;;;;;;;;;;4991174;28;58578;-67
2024/01/22 06:30:20;;;;;;;0.80;0.80;;;;;;;;;;4992686;28;58087;-65
2024/01/22 06:32:45;;;;;;;1.27;0.73;;;;;;;;;;4995149;28;57802;-66
2024/01/22 06:35:11;;;;;;;3.47;1.00;;;;;;;;;;4988508;28;58141;-64
2024/01/22 06:37:36;;;;;;;1.75;0.85;;;;;;;;;;4992343;28;58116;-64
2024/01/22 06:40:01;;;;;;;2.08;0.85;;;;;;;;;;4987513;28;59510;-65
2024/01/22 06:42:27;;;;;;;1.67;1.10;;;;;;;;;;4988691;28;59618;-64
2024/01/22 06:44:52;;;;;;;3.25;1.10;;;;;;;;;;4988439;28;58295;-66
2024/01/22 06:47:18;;;;;;;0.73;0.55;;;;;;;;;;4989846;28;58270;-64
2024/01/22 06:49:43;;;;;;;1.65;0.68;;;;;;;;;;4989228;28;59002;-64
2024/01/22 06:52:08;;;;;;;2.63;0.70;;;;;;;;;;4991231;28;58171;-64
2024/01/22 06:54:33;;;;;;;1.75;0.80;;;;;;;;;;4986414;28;58499;-65
2024/01/22 06:56:58;;;;;;;1.13;0.70;;;;;;;;;;4986408;28;58330;-64
2024/01/22 06:59:24;;;;;;;0.97;0.97;;;;;;;;;;4990435;28;58188;-65
2024/01/22 07:01:49;;;;;;;0.73;0.60;;;;;;;;;;4988754;28;58371;-65
2024/01/22 07:04:14;;;;;;;1.23;0.83;;;;;;;;;;4983807;28;57949;-64
2024/01/22 07:06:39;;;;;;;4.70;1.33;;;;;;;;;;4989073;28;58418;-65
2024/01/22 07:09:06;;;;;;;1.33;1.03;;;;;;;;;;4987675;28;60613;-64
2024/01/22 07:11:31;;;;;;;4.65;1.10;;;;;;;;;;4989753;28;57863;-65
2024/01/22 07:13:56;;;;;;;2.57;0.83;;;;;;;;;;4992308;28;57855;-65
2024/01/22 07:16:21;;;;;;;1.13;0.80;;;;;;;;;;4989210;28;60524;-65
2024/01/22 07:18:47;;;;;;;2.97;1.47;;;;;;;;;;4988791;28;58132;-64
2024/01/22 07:21:12;;;;;;;1.98;0.93;;;;;;;;;;4987681;28;57678;-65
2024/01/22 07:23:38;;;;;;;0.70;0.65;;;;;;;;;;4987805;28;60435;-64
2024/01/22 07:26:03;;;;;;;1.48;0.75;;;;;;;;;;4990785;28;58053;-65
2024/01/22 07:28:28;;;;;;;3.50;0.83;;;;;;;;;;4993250;28;60074;-64
2024/01/22 07:30:53;;;;;;;0.80;0.70;;;;;;;;;;4987479;28;58233;-64
2024/01/22 07:33:18;;;;;;;1.13;0.60;;;;;;;;;;4990109;28;58955;-65
2024/01/22 07:35:44;;;;;;;2.63;1.80;;;;;;;;;;4984234;28;59144;-64
2024/01/22 07:38:09;;;;;;;1.50;1.00;;;;;;;;;;4989267;28;58108;-64
2024/01/22 07:40:34;;;;;;;1.90;0.50;;;;;;;;;;4992558;28;58118;-66
2024/01/22 07:42:59;;;;;;;1.27;0.80;;;;;;;;;;4985920;28;59255;-64
2024/01/22 07:45:24;;;;;;;1.10;0.60;;;;;;;;;;4991219;28;57827;-66
2024/01/22 07:47:50;;;;;;;1.20;1.05;;;;;;;;;;4988933;28;58401;-65
2024/01/22 07:50:15;;;;;;;1.00;0.83;;;;;;;;;;4987683;28;58112;-64
2024/01/22 07:52:40;;;;;;;1.43;0.70;;;;;;;;;;4987164;28;58008;-66
2024/01/22 07:55:06;;;;;;;0.40;0.40;;;;;;;;;;4988337;28;59262;-64
2024/01/22 07:57:31;;;;;;;1.45;1.02;;;;;;;;;;4987204;28;58049;-64
2024/01/22 07:59:56;;;;;;;0.50;0.50;;;;;;;;;;4989246;28;58626;-64
2024/01/22 08:02:22;;;;;;;1.40;0.70;;;;;;;;;;4985893;28;58097;-66
2024/01/22 08:04:47;;;;;;;0.77;0.70;;;;;;;;;;4988952;28;58083;-64
2024/01/22 08:07:12;;;;;;;1.70;1.33;;;;;;;;;;4987625;28;58815;-64
2024/01/22 08:09:38;;;;;;;0.60;0.60;;;;;;;;;;4984390;28;59315;-64
2024/01/22 08:12:03;;;;;;;0.75;0.70;;;;;;;;;;4992906;28;58093;-65
2024/01/22 08:14:29;;;;;;;0.57;0.35;;;;;;;;;;4988782;28;59173;-66
2024/01/22 08:16:55;;;;;;;1.77;0.77;;;;;;;;;;4988122;28;58374;-64
2024/01/22 08:19:20;;;;;;;0.68;0.68;;;;;;;;;;4988785;28;58149;-65
2024/01/22 08:21:45;;;;;;;1.30;1.00;;;;;;;;;;4986789;28;59081;-64
2024/01/22 08:24:10;;;;;;;1.05;0.95;;;;;;;;;;4988111;28;57902;-69
2024/01/22 08:26:35;;;;;;;1.42;0.55;;;;;;;;;;4984706;28;58160;-69
2024/01/22 08:29:01;;;;;;;0.70;0.63;;;;;;;;;;4989241;28;60230;-69
2024/01/22 08:31:26;;;;;;;1.00;0.93;;;;;;;;;;4986316;28;58122;-69
2024/01/22 08:33:51;;;;;;;1.13;0.80;;;;;;;;;;4991136;28;58052;-69
2024/01/22 08:36:16;;;;;;;0.60;0.60;;;;;;;;;;4988071;28;58285;-69
2024/01/22 08:38:41;;;;;;;1.58;0.93;;;;;;;;;;4986587;28;57983;-69
2024/01/22 08:41:08;;;;;;;1.70;0.63;;;;;;;;;;4985469;28;58549;-69
2024/01/22 08:43:34;;;;;;;2.88;0.88;;;;;;;;;;4988803;28;59302;-69
2024/01/22 08:45:59;;;;;;;0.95;0.50;;;;;;;;;;4988803;28;58291;-69
2024/01/22 08:48:25;;;;;;;2.17;0.80;;;;;;;;;;4985577;28;59153;-68
2024/01/22 08:50:50;;;;;;;2.67;1.27;;;;;;;;;;4990428;28;58048;-69
2024/01/22 08:53:15;;;;;;;0.95;0.68;;;;;;;;;;4987930;28;58122;-69
2024/01/22 08:55:40;;;;;;;0.57;0.50;;;;;;;;;;4987568;28;58057;-69
2024/01/22 08:58:05;;;;;;;0.93;0.60;;;;;;;;;;4989072;28;58359;-69
2024/01/22 09:00:31;;;;;;;0.90;0.52;;;;;;;;;;4987782;28;59322;-69
2024/01/22 09:02:56;;;;;;;1.42;0.60;;;;;;;;;;4985192;28;58169;-69
2024/01/22 09:05:21;;;;;;;0.50;0.40;;;;;;;;;;4987556;28;59558;-69
2024/01/22 09:07:48;;;;;;;0.73;0.73;;;;;;;;;;4990349;28;58059;-69
2024/01/22 09:10:14;;;;;;;0.55;0.50;;;;;;;;;;4984369;28;58108;-69
2024/01/22 09:12:39;;;;;;;0.70;0.70;;;;;;;;;;4988548;28;59536;-69
2024/01/22 09:15:05;;;;;;;0.63;0.50;;;;;;;;;;4989832;28;59197;-69
2024/01/22 09:17:30;;;;;;;0.57;0.55;;;;;;;;;;4988955;28;58271;-69
2024/01/22 09:19:56;;;;;;;0.50;0.40;;;;;;;;;;4990379;28;58267;-69
2024/01/22 09:22:21;;;;;;;1.40;0.82;;;;;;;;;;4990217;28;58231;-65
2024/01/22 09:24:46;;;;;;;2.92;1.02;;;;;;;;;;4982508;28;58072;-65
2024/01/22 09:27:11;;;;;;;0.83;0.63;;;;;;;;;;4985184;28;58881;-64
2024/01/22 09:29:36;;;;;;;0.83;0.70;;;;;;;;;;4987694;28;58016;-65
2024/01/22 09:32:02;;;;;;;0.93;0.63;;;;;;;;;;4987148;28;57730;-70
2024/01/22 09:34:28;;;;;;;1.20;1.00;;;;;;;;;;4989869;28;58937;-69
2024/01/22 09:36:53;;;;;;;0.88;0.68;;;;;;;;;;4990891;28;58112;-69
2024/01/22 09:39:19;;;;;;;0.63;0.63;;;;;;;;;;4984158;28;58451;-69
2024/01/22 09:41:44;;;;;;;1.35;0.70;;;;;;;;;;4988282;28;59201;-68
2024/01/22 09:44:10;;;;;;;0.53;0.50;;;;;;;;;;4985287;28;58361;-69
2024/01/22 09:46:35;;;;;;;0.47;0.47;;;;;;;;;;4985002;28;58661;-69
2024/01/22 09:49:00;;;;;;;1.08;0.75;;;;;;;;;;4987775;28;59164;-69
2024/01/22 09:51:27;;;;;;;0.50;0.50;;;;;;;;;;4986730;28;58455;-69
2024/01/22 09:53:53;;;;;;;0.68;0.50;;;;;;;;;;4982113;28;58930;-69
2024/01/22 09:56:20;;;;;;;0.98;0.82;;;;;;;;;;4987891;28;58744;-69
2024/01/22 09:58:45;;;;;;;0.43;0.43;;;;;;;;;;4986739;28;59421;-69
2024/01/22 10:01:10;;;;;;;0.80;0.60;;;;;;;;;;4989153;28;58133;-69
2024/01/22 10:03:37;;;;;;;0.70;0.35;;;;;;;;;;4985124;28;58558;-69
2024/01/22 10:06:03;;;;;;;0.70;0.47;;;;;;;;;;4985805;28;58076;-69
2024/01/22 10:08:29;;;;;;;0.50;0.50;;;;;;;;;;4983448;28;58647;-68
2024/01/22 10:10:54;;;;;;;0.73;0.68;;;;;;;;;;4985438;28;58748;-69
2024/01/22 10:13:19;;;;;;;0.93;0.57;;;;;;;;;;4984181;28;60751;-68
2024/01/22 10:15:44;;;;;;;0.63;0.47;;;;;;;;;;4986823;28;58784;-68
2024/01/22 10:18:13;;;;;;;1.00;0.50;;;;;;;;;;4989004;28;59172;-69
2024/01/22 10:20:39;;;;;;;2.22;0.80;;;;;;;;;;4992144;28;58445;-69
2024/01/22 10:23:05;;;;;;;0.88;0.60;;;;;;;;;;4988479;28;58724;-69
2024/01/22 10:25:30;;;;;;;0.70;0.67;;;;;;;;;;4985543;28;58903;-69
2024/01/22 10:28:16;;;;;;;0.93;0.63;;;;;;;;;;4988060;28;58035;-69
2024/01/22 10:30:42;;;;;;;0.63;0.50;;;;;;;;;;5002363;28;60011;-68
2024/01/22 10:33:08;;;;;;;0.55;0.47;;;;;;;;;;4988205;28;58826;-65
2024/01/22 10:35:34;;;;;;;0.30;0.25;;;;;;;;;;4986057;28;58356;-64
2024/01/22 10:38:12;;;;;;;0.43;0.30;;;;;;;;;;4986754;28;58994;-65
2024/01/22 10:40:38;;;;;;;1.20;1.15;;;;;;;;;;4983828;28;59287;-65
2024/01/22 10:43:19;;;;;;;0.30;0.25;;;;;;;;;;4983512;28;58127;-66
2024/01/22 10:45:45;;;;;;;0.68;0.40;;;;;;;;;;4990366;28;58867;-64
2024/01/22 10:48:10;;;;;;;0.47;0.43;;;;;;;;;;4987369;28;58316;-64
2024/01/22 10:50:35;;;;;;;0.57;0.47;;;;;;;;;;4988722;28;59241;-65
2024/01/22 10:53:01;;;;;;;0.88;0.45;;;;;;;;;;4986495;28;59130;-64
2024/01/22 10:55:26;;;;;;;0.40;0.40;;;;;;;;;;4985818;28;58395;-66
2024/01/22 10:57:53;;;;;;;0.88;0.40;;;;;;;;;;4990676;28;60343;-65
2024/01/22 11:00:18;;;;;;;0.50;0.50;;;;;;;;;;4988082;28;58161;-65
2024/01/22 11:02:46;;;;;;;0.40;0.40;;;;;;;;;;4983619;28;58140;-64
2024/01/22 11:05:13;;;;;;;0.50;0.47;;;;;;;;;;4985483;28;58545;-65
2024/01/22 11:07:39;;;;;;;0.65;0.35;;;;;;;;;;4989511;28;58093;-65
2024/01/22 11:10:05;;;;;;;1.60;0.68;;;;;;;;;;4989916;28;58201;-64
2024/01/22 11:12:35;;;;;;;0.65;0.50;;;;;;;;;;4988538;28;58140;-65
2024/01/22 11:15:00;;;;;;;0.57;0.50;;;;;;;;;;4987562;28;57994;-65
2024/01/22 11:17:25;;;;;;;0.77;0.77;;;;;;;;;;4992177;28;58007;-65
2024/01/22 11:19:51;;;;;;;1.07;0.53;;;;;;;;;;4989195;28;59298;-65
2024/01/22 11:22:23;;;;;;;0.70;0.50;;;;;;;;;;4988175;28;58049;-67
2024/01/22 11:25:01;;;;;;;0.43;0.40;;;;;;;;;;4991830;28;58920;-64
2024/01/22 11:27:39;;;;;;;2.03;0.40;;;;;;;;;;4988896;28;57992;-64
2024/01/22 11:30:19;;;;;;;0.32;0.30;;;;;;;;;;4987852;28;58031;-64
2024/01/22 11:32:44;;;;;;;0.47;0.47;;;;;;;;;;4989783;28;58431;-66
2024/01/22 11:35:09;;;;;;;0.68;0.65;;;;;;;;;;4988294;28;58151;-65
2024/01/22 11:37:36;;;;;;;1.27;0.55;;;;;;;;;;4987533;28;58581;-66
2024/01/22 11:40:01;;;;;;;1.02;0.80;;;;;;;;;;4984337;28;58102;-64
2024/01/22 11:42:28;;;;;;;0.70;0.60;;;;;;;;;;4987995;28;58709;-69
2024/01/22 11:44:54;;;;;;;0.85;0.40;;;;;;;;;;4985871;28;59700;-69
2024/01/22 11:47:19;;;;;;;0.88;0.50;;;;;;;;;;4989154;28;59130;-69
2024/01/22 11:49:45;;;;;;;0.88;0.55;;;;;;;;;;4987427;28;59507;-69
2024/01/22 11:52:17;;;;;;;0.60;0.60;;;;;;;;;;4988369;28;58903;-65
2024/01/22 11:54:52;;;;;;;0.40;0.40;;;;;;;;;;4980848;28;58123;-66
2024/01/22 11:57:18;;;;;;;0.50;0.50;;;;;;;;;;4981542;28;59460;-64
2024/01/22 11:59:56;;;;;;;0.65;0.32;;;;;;;;;;4982992;28;59695;-64
2024/01/22 12:02:21;;;;;;;0.50;0.50;;;;;;;;;;4983951;28;59098;-64
2024/01/22 12:04:46;;;;;;;1.02;0.57;;;;;;;;;;4986649;28;58638;-66
2024/01/22 12:07:11;;;;;;;0.53;0.53;;;;;;;;;;4985318;28;60695;-64
2024/01/22 12:09:37;;;;;;;0.57;0.33;;;;;;;;;;4986845;28;58823;-66
2024/01/22 12:12:04;;;;;;;1.10;0.50;;;;;;;;;;4986321;28;58683;-66
2024/01/22 12:14:29;;;;;;;1.23;1.13;;;;;;;;;;4987080;28;58115;-64
2024/01/22 12:17:01;;;;;;;0.80;0.30;;;;;;;;;;4987120;28;58757;-65
2024/01/22 12:19:26;;;;;;;0.68;0.52;;;;;;;;;;4987983;28;58413;-64
2024/01/22 12:21:51;;;;;;;2.33;0.60;;;;;;;;;;4986913;28;58147;-65
2024/01/22 12:24:16;;;;;;;0.40;0.40;;;;;;;;;;4988116;28;58578;-67
2024/01/22 12:26:41;;;;;;;0.70;0.50;;;;;;;;;;4987982;28;58988;-65
2024/01/22 12:29:07;;;;;;;1.73;1.03;;;;;;;;;;4988111;28;57943;-64
2024/01/22 12:31:32;;;;;;;2.03;0.70;;;;;;;;;;4987513;28;57878;-64
2024/01/22 12:34:10;;;;;;;1.33;0.90;;;;;;;;;;4987949;28;58056;-64
2024/01/22 12:36:36;;;;;;;0.35;0.35;;;;;;;;;;4987469;28;58580;-64
2024/01/22 12:39:03;;;;;;;1.27;0.73;;;;;;;;;;4984890;28;60605;-65
2024/01/22 12:41:30;;;;;;;1.07;0.50;;;;;;;;;;4990483;28;58099;-66
2024/01/22 12:43:58;;;;;;;1.17;0.43;;;;;;;;;;4987526;28;58114;-65
2024/01/22 12:46:24;;;;;;;0.90;0.73;;;;;;;;;;4982097;28;59217;-65
2024/01/22 12:48:55;;;;;;;0.40;0.32;;;;;;;;;;4983537;28;57918;-64
2024/01/22 12:51:24;;;;;;;0.88;0.65;;;;;;;;;;4988399;28;59631;-66
2024/01/22 12:53:49;;;;;;;1.15;0.40;;;;;;;;;;4987257;28;58807;-65
2024/01/22 12:56:15;;;;;;;0.77;0.40;;;;;;;;;;4986388;28;58513;-65
2024/01/22 12:58:41;;;;;;;0.52;0.50;;;;;;;;;;4988763;28;59100;-64
2024/01/22 13:01:06;;;;;;;0.45;0.40;;;;;;;;;;4987004;28;58397;-64
2024/01/22 13:03:32;;;;;;;2.15;1.08;;;;;;;;;;4986764;28;59487;-64
2024/01/22 13:05:57;;;;;;;0.40;0.40;;;;;;;;;;4985419;28;58258;-65
2024/01/22 13:08:22;;;;;;;1.90;0.63;;;;;;;;;;4985700;28;58394;-65
2024/01/22 13:10:47;;;;;;;0.60;0.33;;;;;;;;;;4991924;28;59125;-65
2024/01/22 13:13:15;;;;;;;1.80;1.20;;;;;;;;;;4987517;28;58833;-64
2024/01/22 13:15:41;;;;;;;0.90;0.32;;;;;;;;;;4988854;28;58565;-64
2024/01/22 13:18:06;;;;;;;0.73;0.30;;;;;;;;;;4988922;28;59361;-64
2024/01/22 13:20:32;;;;;;;0.68;0.68;;;;;;;;;;4988647;28;58907;-65
2024/01/22 13:22:57;;;;;;;1.07;0.33;;;;;;;;;;4986775;28;59115;-64
2024/01/22 13:25:22;;;;;;;3.20;0.90;;;;;;;;;;4985442;28;58631;-65
2024/01/22 13:27:51;;;;;;;0.37;0.30;;;;;;;;;;4984155;28;58184;-65
2024/01/22 13:30:16;;;;;;;0.75;0.47;;;;;;;;;;4986389;28;59011;-64
2024/01/22 13:32:42;;;;;;;0.35;0.35;;;;;;;;;;4982513;28;60024;-65
2024/01/22 13:35:07;;;;;;;0.70;0.47;;;;;;;;;;4986948;28;57856;-65
2024/01/22 13:37:33;;;;;;;1.02;0.75;;;;;;;;;;4985267;28;57895;-64
2024/01/22 13:39:58;;;;;;;1.88;1.23;;;;;;;;;;4986126;28;58489;-65
2024/01/22 13:42:23;;;;;;;0.50;0.50;;;;;;;;;;4986878;28;58761;-66
2024/01/22 13:44:50;;;;;;;0.30;0.30;;;;;;;;;;4981987;28;58447;-66
2024/01/22 13:47:15;;;;;;;0.35;0.35;;;;;;;;;;4984736;28;58044;-66
2024/01/22 13:49:41;;;;;;;0.30;0.30;;;;;;;;;;4987469;28;58583;-66
2024/01/22 13:52:06;;;;;;;0.57;0.50;;;;;;;;;;4984749;28;59473;-65
2024/01/22 13:54:31;;;;;;;1.27;0.60;;;;;;;;;;4985348;28;58274;-65
2024/01/22 13:56:57;;;;;;;1.25;0.60;;;;;;;;;;4986167;28;58043;-65
2024/01/22 13:59:22;;;;;;;1.87;0.50;;;;;;;;;;4987896;28;58166;-66
2024/01/22 14:01:47;;;;;;;0.82;0.38;;;;;;;;;;4986247;28;59277;-68
2024/01/22 14:04:12;;;;;;;0.30;0.30;;;;;;;;;;4983554;28;58855;-69
2024/01/22 14:06:38;;;;;;;0.50;0.50;;;;;;;;;;4986598;28;58393;-69
2024/01/22 14:09:05;;;;;;;0.63;0.50;;;;;;;;;;4983636;28;59058;-69
2024/01/22 14:11:30;;;;;;;0.82;0.50;;;;;;;;;;4983330;28;59421;-69
2024/01/22 14:13:55;;;;;;;0.38;0.38;;;;;;;;;;4990443;28;58196;-70
2024/01/22 14:16:20;;;;;;;1.08;0.52;;;;;;;;;;4985005;28;58584;-69
2024/01/22 14:18:46;;;;;;;0.20;0.20;;;;;;;;;;4985788;28;59946;-69
2024/01/22 14:21:11;;;;;;;1.13;1.00;;;;;;;;;;4989520;28;58131;-69
2024/01/22 14:23:36;;;;;;;1.00;0.43;;;;;;;;;;4987897;28;58102;-69
2024/01/22 14:26:02;;;;;;;0.83;0.63;;;;;;;;;;4988197;28;58069;-69
2024/01/22 14:28:27;;;;;;;0.45;0.35;;;;;;;;;;4986945;28;58741;-69
2024/01/22 14:30:52;;;;;;;1.57;0.40;;;;;;;;;;4985771;28;57923;-69
2024/01/22 14:33:18;;;;;;;1.33;0.40;;;;;;;;;;4984125;28;58017;-69
2024/01/22 14:35:44;;;;;;;0.50;0.30;;;;;;;;;;4981074;28;59548;-69